METAR 2014/10/30 :

EPMO 18:30: METAR EPMO 301830Z 29007KT 5000 BR OVC007 06/05 Q1025= EPMO 18:00: METAR EPMO 301800Z 29007KT 5000 BR BKN009 OVC013 06/05 Q1025=

TAF 2014/10/30 :

EPMO 18:08: TAF AMD EPMO 301808Z 3018/3103 28005KT 5000 BR BKN010 BECMG 3019/3022 3000 BR BKN005 PROB40 3023/3103 0800 FG BKN002= EPMO 17:30: TAF EPMO 301730Z 3018/3103 28005KT 5000 BR BKN015 BECMG 3020/3023 3000 BR BKN007 PROB40 3100/3103 0800 FG BKN003=

Pogoda ogólna dla Polski